sensor_id;sensor_type;location;lat;lon;timestamp;P1;durP1;ratioP1;P2;durP2;ratioP2
57057;SDS011;55017;52.848;6.748;2023-04-03T00:02:20;122.30;;;118.45;;
57057;SDS011;55017;52.848;6.748;2023-04-03T00:04:46;122.40;;;118.40;;
57057;SDS011;55017;52.848;6.748;2023-04-03T00:07:12;123.37;;;119.37;;
57057;SDS011;55017;52.848;6.748;2023-04-03T00:09:39;125.38;;;121.28;;
57057;SDS011;55017;52.848;6.748;2023-04-03T00:12:05;126.10;;;122.10;;
57057;SDS011;55017;52.848;6.748;2023-04-03T00:14:31;123.07;;;119.28;;
57057;SDS011;55017;52.848;6.748;2023-04-03T00:16:57;119.88;;;116.07;;
57057;SDS011;55017;52.848;6.748;2023-04-03T00:19:23;122.18;;;118.20;;
57057;SDS011;55017;52.848;6.748;2023-04-03T00:21:49;125.85;;;121.90;;
57057;SDS011;55017;52.848;6.748;2023-04-03T00:24:15;124.83;;;120.93;;
57057;SDS011;55017;52.848;6.748;2023-04-03T00:26:41;127.47;;;123.47;;
57057;SDS011;55017;52.848;6.748;2023-04-03T00:29:07;123.13;;;119.13;;
57057;SDS011;55017;52.848;6.748;2023-04-03T00:31:33;125.75;;;121.38;;
57057;SDS011;55017;52.848;6.748;2023-04-03T00:33:59;126.38;;;122.28;;
57057;SDS011;55017;52.848;6.748;2023-04-03T00:36:25;120.35;;;116.50;;
57057;SDS011;55017;52.848;6.748;2023-04-03T00:38:51;124.20;;;120.30;;
57057;SDS011;55017;52.848;6.748;2023-04-03T00:41:17;124.07;;;120.15;;
57057;SDS011;55017;52.848;6.748;2023-04-03T00:43:43;127.13;;;122.90;;
57057;SDS011;55017;52.848;6.748;2023-04-03T00:46:09;127.35;;;123.30;;
57057;SDS011;55017;52.848;6.748;2023-04-03T00:48:38;123.90;;;120.03;;
57057;SDS011;55017;52.848;6.748;2023-04-03T00:51:05;131.60;;;127.30;;
57057;SDS011;55017;52.848;6.748;2023-04-03T00:53:40;126.80;;;122.60;;
57057;SDS011;55017;52.848;6.748;2023-04-03T00:56:08;125.05;;;121.03;;
57057;SDS011;55017;52.848;6.748;2023-04-03T00:58:40;121.55;;;117.75;;
57057;SDS011;55017;52.848;6.748;2023-04-03T01:01:08;125.50;;;121.40;;
57057;SDS011;55017;52.848;6.748;2023-04-03T01:06:02;122.53;;;118.63;;
57057;SDS011;55017;52.848;6.748;2023-04-03T01:08:28;124.15;;;120.25;;
57057;SDS011;55017;52.848;6.748;2023-04-03T01:10:54;123.68;;;119.78;;
57057;SDS011;55017;52.848;6.748;2023-04-03T01:15:46;120.82;;;116.93;;
57057;SDS011;55017;52.848;6.748;2023-04-03T01:18:12;124.32;;;120.32;;
57057;SDS011;55017;52.848;6.748;2023-04-03T01:25:51;128.80;;;124.50;;
57057;SDS011;55017;52.848;6.748;2023-04-03T01:28:23;125.20;;;121.30;;
57057;SDS011;55017;52.848;6.748;2023-04-03T01:33:34;127.13;;;122.80;;
57057;SDS011;55017;52.848;6.748;2023-04-03T01:36:01;122.05;;;118.15;;
57057;SDS011;55017;52.848;6.748;2023-04-03T01:38:27;121.15;;;117.25;;
57057;SDS011;55017;52.848;6.748;2023-04-03T01:40:53;125.30;;;121.30;;
57057;SDS011;55017;52.848;6.748;2023-04-03T01:43:19;124.55;;;120.55;;
57057;SDS011;55017;52.848;6.748;2023-04-03T01:45:45;124.28;;;120.28;;
57057;SDS011;55017;52.848;6.748;2023-04-03T01:48:11;126.67;;;122.57;;
57057;SDS011;55017;52.848;6.748;2023-04-03T01:50:38;125.35;;;121.10;;
57057;SDS011;55017;52.848;6.748;2023-04-03T01:53:04;124.40;;;120.35;;
57057;SDS011;55017;52.848;6.748;2023-04-03T01:55:30;122.30;;;118.30;;
57057;SDS011;55017;52.848;6.748;2023-04-03T01:57:56;127.88;;;123.78;;
57057;SDS011;55017;52.848;6.748;2023-04-03T02:00:22;125.10;;;120.95;;
57057;SDS011;55017;52.848;6.748;2023-04-03T02:02:48;123.33;;;119.33;;
57057;SDS011;55017;52.848;6.748;2023-04-03T02:05:14;124.90;;;120.90;;
57057;SDS011;55017;52.848;6.748;2023-04-03T02:07:40;125.10;;;121.00;;
57057;SDS011;55017;52.848;6.748;2023-04-03T02:10:06;124.75;;;120.78;;
57057;SDS011;55017;52.848;6.748;2023-04-03T02:12:32;128.18;;;124.05;;
57057;SDS011;55017;52.848;6.748;2023-04-03T02:14:58;123.97;;;119.88;;
57057;SDS011;55017;52.848;6.748;2023-04-03T02:17:25;123.72;;;119.75;;
57057;SDS011;55017;52.848;6.748;2023-04-03T02:19:52;126.25;;;122.05;;
57057;SDS011;55017;52.848;6.748;2023-04-03T02:22:18;127.83;;;123.57;;
57057;SDS011;55017;52.848;6.748;2023-04-03T02:24:45;127.30;;;123.20;;
57057;SDS011;55017;52.848;6.748;2023-04-03T02:27:11;124.10;;;120.15;;
57057;SDS011;55017;52.848;6.748;2023-04-03T02:29:37;127.60;;;123.28;;
57057;SDS011;55017;52.848;6.748;2023-04-03T02:32:03;123.77;;;119.80;;
57057;SDS011;55017;52.848;6.748;2023-04-03T02:34:29;130.23;;;126.00;;
57057;SDS011;55017;52.848;6.748;2023-04-03T02:36:55;125.05;;;120.95;;
57057;SDS011;55017;52.848;6.748;2023-04-03T02:39:21;127.18;;;122.97;;
57057;SDS011;55017;52.848;6.748;2023-04-03T02:41:47;124.60;;;120.40;;
57057;SDS011;55017;52.848;6.748;2023-04-03T02:44:13;127.55;;;123.30;;
57057;SDS011;55017;52.848;6.748;2023-04-03T02:46:39;128.60;;;124.35;;
57057;SDS011;55017;52.848;6.748;2023-04-03T02:49:05;127.95;;;123.85;;
57057;SDS011;55017;52.848;6.748;2023-04-03T02:51:31;127.60;;;123.32;;
57057;SDS011;55017;52.848;6.748;2023-04-03T02:53:57;129.05;;;124.70;;
57057;SDS011;55017;52.848;6.748;2023-04-03T02:56:23;122.65;;;118.55;;
57057;SDS011;55017;52.848;6.748;2023-04-03T02:58:49;129.38;;;125.13;;
57057;SDS011;55017;52.848;6.748;2023-04-03T03:01:15;123.30;;;119.20;;
57057;SDS011;55017;52.848;6.748;2023-04-03T03:03:41;125.10;;;121.00;;
57057;SDS011;55017;52.848;6.748;2023-04-03T03:06:12;130.55;;;126.35;;
57057;SDS011;55017;52.848;6.748;2023-04-03T03:08:38;127.43;;;123.32;;
57057;SDS011;55017;52.848;6.748;2023-04-03T03:11:04;126.82;;;122.82;;
57057;SDS011;55017;52.848;6.748;2023-04-03T03:13:31;129.65;;;125.25;;
57057;SDS011;55017;52.848;6.748;2023-04-03T03:15:57;127.40;;;123.38;;
57057;SDS011;55017;52.848;6.748;2023-04-03T03:18:23;129.02;;;124.72;;
57057;SDS011;55017;52.848;6.748;2023-04-03T03:20:53;127.17;;;123.07;;
57057;SDS011;55017;52.848;6.748;2023-04-03T03:23:20;128.57;;;124.47;;
57057;SDS011;55017;52.848;6.748;2023-04-03T03:25:46;128.93;;;124.30;;
57057;SDS011;55017;52.848;6.748;2023-04-03T03:28:12;126.78;;;122.53;;
57057;SDS011;55017;52.848;6.748;2023-04-03T03:30:38;129.10;;;125.00;;
57057;SDS011;55017;52.848;6.748;2023-04-03T03:33:04;127.63;;;123.55;;
57057;SDS011;55017;52.848;6.748;2023-04-03T03:35:30;127.55;;;123.25;;
57057;SDS011;55017;52.848;6.748;2023-04-03T03:37:56;127.90;;;123.60;;
57057;SDS011;55017;52.848;6.748;2023-04-03T03:40:22;126.45;;;122.45;;
57057;SDS011;55017;52.848;6.748;2023-04-03T03:42:48;128.73;;;124.45;;
57057;SDS011;55017;52.848;6.748;2023-04-03T03:45:14;129.07;;;124.97;;
57057;SDS011;55017;52.848;6.748;2023-04-03T03:47:40;129.80;;;125.50;;
57057;SDS011;55017;52.848;6.748;2023-04-03T03:50:06;130.52;;;126.05;;
57057;SDS011;55017;52.848;6.748;2023-04-03T03:52:32;133.07;;;128.65;;
57057;SDS011;55017;52.848;6.748;2023-04-03T03:54:58;133.75;;;129.38;;
57057;SDS011;55017;52.848;6.748;2023-04-03T03:57:24;131.40;;;127.20;;
57057;SDS011;55017;52.848;6.748;2023-04-03T03:59:51;132.35;;;127.85;;
57057;SDS011;55017;52.848;6.748;2023-04-03T04:02:17;129.35;;;125.03;;
57057;SDS011;55017;52.848;6.748;2023-04-03T04:04:43;132.73;;;128.23;;
57057;SDS011;55017;52.848;6.748;2023-04-03T04:07:09;132.32;;;128.05;;
57057;SDS011;55017;52.848;6.748;2023-04-03T04:09:35;130.50;;;126.10;;
57057;SDS011;55017;52.848;6.748;2023-04-03T04:12:01;128.48;;;124.18;;
57057;SDS011;55017;52.848;6.748;2023-04-03T04:14:27;128.40;;;124.15;;
57057;SDS011;55017;52.848;6.748;2023-04-03T04:16:52;133.57;;;129.18;;
57057;SDS011;55017;52.848;6.748;2023-04-03T04:19:18;134.13;;;129.68;;
57057;SDS011;55017;52.848;6.748;2023-04-03T04:21:43;130.88;;;126.35;;
57057;SDS011;55017;52.848;6.748;2023-04-03T04:24:10;133.30;;;128.68;;
57057;SDS011;55017;52.848;6.748;2023-04-03T04:26:36;131.57;;;127.18;;
57057;SDS011;55017;52.848;6.748;2023-04-03T04:29:02;133.45;;;128.95;;
57057;SDS011;55017;52.848;6.748;2023-04-03T04:31:28;132.02;;;127.25;;
57057;SDS011;55017;52.848;6.748;2023-04-03T04:33:54;132.48;;;128.15;;
57057;SDS011;55017;52.848;6.748;2023-04-03T04:36:20;135.93;;;131.23;;
57057;SDS011;55017;52.848;6.748;2023-04-03T04:38:46;132.07;;;127.80;;
57057;SDS011;55017;52.848;6.748;2023-04-03T04:41:12;133.13;;;128.60;;
57057;SDS011;55017;52.848;6.748;2023-04-03T04:43:38;133.98;;;129.43;;
57057;SDS011;55017;52.848;6.748;2023-04-03T04:46:08;130.48;;;126.15;;
57057;SDS011;55017;52.848;6.748;2023-04-03T04:48:36;127.68;;;123.47;;
57057;SDS011;55017;52.848;6.748;2023-04-03T04:51:02;133.20;;;128.80;;
57057;SDS011;55017;52.848;6.748;2023-04-03T04:53:29;135.48;;;130.98;;
57057;SDS011;55017;52.848;6.748;2023-04-03T04:55:55;130.00;;;125.70;;
57057;SDS011;55017;52.848;6.748;2023-04-03T04:58:21;129.90;;;125.27;;
57057;SDS011;55017;52.848;6.748;2023-04-03T05:00:47;132.75;;;128.40;;
57057;SDS011;55017;52.848;6.748;2023-04-03T05:03:13;129.30;;;125.10;;
57057;SDS011;55017;52.848;6.748;2023-04-03T05:05:39;131.75;;;127.35;;
57057;SDS011;55017;52.848;6.748;2023-04-03T05:08:05;129.40;;;125.10;;
57057;SDS011;55017;52.848;6.748;2023-04-03T05:10:33;134.00;;;129.40;;
57057;SDS011;55017;52.848;6.748;2023-04-03T05:12:59;130.50;;;126.03;;
57057;SDS011;55017;52.848;6.748;2023-04-03T05:15:25;131.30;;;126.88;;
57057;SDS011;55017;52.848;6.748;2023-04-03T05:17:51;133.20;;;128.48;;
57057;SDS011;55017;52.848;6.748;2023-04-03T05:20:17;132.38;;;127.88;;
57057;SDS011;55017;52.848;6.748;2023-04-03T05:22:43;131.68;;;127.35;;
57057;SDS011;55017;52.848;6.748;2023-04-03T05:25:09;132.77;;;128.27;;
57057;SDS011;55017;52.848;6.748;2023-04-03T05:27:35;129.60;;;125.13;;
57057;SDS011;55017;52.848;6.748;2023-04-03T05:30:01;132.05;;;127.65;;
57057;SDS011;55017;52.848;6.748;2023-04-03T05:32:27;131.80;;;127.50;;
57057;SDS011;55017;52.848;6.748;2023-04-03T05:34:53;131.53;;;126.97;;
57057;SDS011;55017;52.848;6.748;2023-04-03T05:37:19;132.37;;;128.07;;
57057;SDS011;55017;52.848;6.748;2023-04-03T05:39:46;132.27;;;127.80;;
57057;SDS011;55017;52.848;6.748;2023-04-03T05:42:12;132.80;;;128.50;;
57057;SDS011;55017;52.848;6.748;2023-04-03T05:44:38;133.15;;;128.75;;
57057;SDS011;55017;52.848;6.748;2023-04-03T05:47:05;133.95;;;129.32;;
57057;SDS011;55017;52.848;6.748;2023-04-03T05:49:32;131.32;;;126.85;;
57057;SDS011;55017;52.848;6.748;2023-04-03T05:51:58;134.67;;;130.27;;
57057;SDS011;55017;52.848;6.748;2023-04-03T05:56:50;135.77;;;131.18;;
57057;SDS011;55017;52.848;6.748;2023-04-03T05:59:16;135.20;;;130.50;;
57057;SDS011;55017;52.848;6.748;2023-04-03T06:01:43;137.05;;;132.20;;
57057;SDS011;55017;52.848;6.748;2023-04-03T06:04:09;136.57;;;131.60;;
57057;SDS011;55017;52.848;6.748;2023-04-03T06:06:45;135.32;;;131.00;;
57057;SDS011;55017;52.848;6.748;2023-04-03T06:09:12;135.00;;;130.23;;
57057;SDS011;55017;52.848;6.748;2023-04-03T06:11:38;136.25;;;131.75;;
57057;SDS011;55017;52.848;6.748;2023-04-03T06:14:04;137.53;;;133.00;;
57057;SDS011;55017;52.848;6.748;2023-04-03T06:16:30;136.55;;;132.00;;
57057;SDS011;55017;52.848;6.748;2023-04-03T06:18:57;135.57;;;131.07;;
57057;SDS011;55017;52.848;6.748;2023-04-03T06:21:23;134.00;;;129.30;;
57057;SDS011;55017;52.848;6.748;2023-04-03T06:23:49;134.90;;;130.35;;
57057;SDS011;55017;52.848;6.748;2023-04-03T06:26:16;136.45;;;131.85;;
57057;SDS011;55017;52.848;6.748;2023-04-03T06:28:42;134.77;;;130.27;;
57057;SDS011;55017;52.848;6.748;2023-04-03T06:31:08;134.52;;;130.07;;
57057;SDS011;55017;52.848;6.748;2023-04-03T06:33:34;137.80;;;132.90;;
57057;SDS011;55017;52.848;6.748;2023-04-03T06:36:03;133.43;;;128.90;;
57057;SDS011;55017;52.848;6.748;2023-04-03T06:38:29;135.60;;;130.90;;
57057;SDS011;55017;52.848;6.748;2023-04-03T06:40:55;135.27;;;130.83;;
57057;SDS011;55017;52.848;6.748;2023-04-03T06:43:21;133.80;;;129.25;;
57057;SDS011;55017;52.848;6.748;2023-04-03T06:45:47;135.98;;;131.57;;
57057;SDS011;55017;52.848;6.748;2023-04-03T06:48:14;131.30;;;127.10;;
57057;SDS011;55017;52.848;6.748;2023-04-03T06:50:40;135.40;;;130.90;;
57057;SDS011;55017;52.848;6.748;2023-04-03T06:53:06;135.68;;;131.00;;
57057;SDS011;55017;52.848;6.748;2023-04-03T06:55:33;129.20;;;124.90;;
57057;SDS011;55017;52.848;6.748;2023-04-03T06:57:59;130.05;;;125.47;;
57057;SDS011;55017;52.848;6.748;2023-04-03T07:00:25;127.57;;;123.23;;
57057;SDS011;55017;52.848;6.748;2023-04-03T07:02:51;131.77;;;127.45;;
57057;SDS011;55017;52.848;6.748;2023-04-03T07:05:17;130.10;;;125.85;;
57057;SDS011;55017;52.848;6.748;2023-04-03T07:07:43;132.82;;;128.32;;
57057;SDS011;55017;52.848;6.748;2023-04-03T07:10:10;133.98;;;129.40;;
57057;SDS011;55017;52.848;6.748;2023-04-03T07:12:36;126.37;;;122.13;;
57057;SDS011;55017;52.848;6.748;2023-04-03T07:15:03;129.18;;;124.90;;
57057;SDS011;55017;52.848;6.748;2023-04-03T07:17:29;131.27;;;126.53;;
57057;SDS011;55017;52.848;6.748;2023-04-03T07:19:56;129.02;;;124.63;;
57057;SDS011;55017;52.848;6.748;2023-04-03T07:22:22;133.50;;;129.05;;
57057;SDS011;55017;52.848;6.748;2023-04-03T07:24:48;129.95;;;125.45;;
57057;SDS011;55017;52.848;6.748;2023-04-03T07:27:14;129.77;;;125.47;;
57057;SDS011;55017;52.848;6.748;2023-04-03T07:29:40;130.55;;;126.15;;
57057;SDS011;55017;52.848;6.748;2023-04-03T07:32:06;126.45;;;122.25;;
57057;SDS011;55017;52.848;6.748;2023-04-03T07:34:32;128.00;;;123.70;;
57057;SDS011;55017;52.848;6.748;2023-04-03T07:36:58;129.90;;;125.40;;
57057;SDS011;55017;52.848;6.748;2023-04-03T07:39:25;129.85;;;125.65;;
57057;SDS011;55017;52.848;6.748;2023-04-03T07:41:51;126.30;;;122.13;;
57057;SDS011;55017;52.848;6.748;2023-04-03T07:44:17;126.95;;;122.70;;
57057;SDS011;55017;52.848;6.748;2023-04-03T07:46:43;130.90;;;126.30;;
57057;SDS011;55017;52.848;6.748;2023-04-03T07:49:09;132.52;;;128.00;;
57057;SDS011;55017;52.848;6.748;2023-04-03T07:51:35;134.35;;;129.95;;
57057;SDS011;55017;52.848;6.748;2023-04-03T07:54:01;134.80;;;130.30;;
57057;SDS011;55017;52.848;6.748;2023-04-03T07:56:27;135.00;;;130.30;;
57057;SDS011;55017;52.848;6.748;2023-04-03T07:58:53;135.87;;;131.27;;
57057;SDS011;55017;52.848;6.748;2023-04-03T08:01:19;133.45;;;128.95;;
57057;SDS011;55017;52.848;6.748;2023-04-03T08:03:45;133.90;;;129.60;;
57057;SDS011;55017;52.848;6.748;2023-04-03T08:06:11;132.25;;;127.78;;
57057;SDS011;55017;52.848;6.748;2023-04-03T08:08:38;131.00;;;126.60;;
57057;SDS011;55017;52.848;6.748;2023-04-03T08:11:04;127.50;;;123.30;;
57057;SDS011;55017;52.848;6.748;2023-04-03T08:13:31;132.93;;;128.43;;
57057;SDS011;55017;52.848;6.748;2023-04-03T08:15:57;131.40;;;127.10;;
57057;SDS011;55017;52.848;6.748;2023-04-03T08:18:24;128.27;;;124.00;;
57057;SDS011;55017;52.848;6.748;2023-04-03T08:20:51;130.65;;;126.25;;
57057;SDS011;55017;52.848;6.748;2023-04-03T08:23:17;131.45;;;127.15;;
57057;SDS011;55017;52.848;6.748;2023-04-03T08:25:43;127.40;;;123.30;;
57057;SDS011;55017;52.848;6.748;2023-04-03T08:28:10;129.90;;;125.50;;
57057;SDS011;55017;52.848;6.748;2023-04-03T08:30:38;128.65;;;124.32;;
57057;SDS011;55017;52.848;6.748;2023-04-03T08:33:05;126.45;;;122.25;;
57057;SDS011;55017;52.848;6.748;2023-04-03T08:35:32;120.65;;;116.65;;
57057;SDS011;55017;52.848;6.748;2023-04-03T08:37:57;130.35;;;125.95;;
57057;SDS011;55017;52.848;6.748;2023-04-03T08:40:23;127.93;;;123.63;;
57057;SDS011;55017;52.848;6.748;2023-04-03T08:48:06;128.05;;;123.95;;
57057;SDS011;55017;52.848;6.748;2023-04-03T08:50:37;127.47;;;123.37;;
57057;SDS011;55017;52.848;6.748;2023-04-03T08:53:06;126.70;;;122.53;;
57057;SDS011;55017;52.848;6.748;2023-04-03T08:55:43;124.55;;;120.50;;
57057;SDS011;55017;52.848;6.748;2023-04-03T09:03:30;123.50;;;119.50;;
57057;SDS011;55017;52.848;6.748;2023-04-03T09:06:03;129.80;;;125.60;;
57057;SDS011;55017;52.848;6.748;2023-04-03T09:08:30;128.60;;;124.33;;
57057;SDS011;55017;52.848;6.748;2023-04-03T09:11:06;127.20;;;122.90;;
57057;SDS011;55017;52.848;6.748;2023-04-03T09:16:20;128.90;;;124.60;;
57057;SDS011;55017;52.848;6.748;2023-04-03T09:19:02;123.15;;;119.30;;
57057;SDS011;55017;52.848;6.748;2023-04-03T09:21:51;124.10;;;120.20;;
57057;SDS011;55017;52.848;6.748;2023-04-03T09:24:18;128.75;;;124.65;;
57057;SDS011;55017;52.848;6.748;2023-04-03T09:26:48;127.65;;;123.70;;
57057;SDS011;55017;52.848;6.748;2023-04-03T09:29:17;122.25;;;118.25;;
57057;SDS011;55017;52.848;6.748;2023-04-03T09:31:46;123.35;;;119.45;;
57057;SDS011;55017;52.848;6.748;2023-04-03T09:34:23;125.75;;;121.65;;
57057;SDS011;55017;52.848;6.748;2023-04-03T09:36:59;125.40;;;121.40;;
57057;SDS011;55017;52.848;6.748;2023-04-03T09:39:30;124.90;;;120.90;;
57057;SDS011;55017;52.848;6.748;2023-04-03T09:44:56;123.50;;;119.60;;
57057;SDS011;55017;52.848;6.748;2023-04-03T09:47:25;122.25;;;118.15;;
57057;SDS011;55017;52.848;6.748;2023-04-03T09:52:36;122.30;;;118.30;;
57057;SDS011;55017;52.848;6.748;2023-04-03T09:57:28;122.60;;;118.60;;
57057;SDS011;55017;52.848;6.748;2023-04-03T09:59:58;126.10;;;122.10;;
57057;SDS011;55017;52.848;6.748;2023-04-03T10:02:32;124.10;;;120.10;;
57057;SDS011;55017;52.848;6.748;2023-04-03T10:04:59;123.50;;;119.60;;
57057;SDS011;55017;52.848;6.748;2023-04-03T10:07:32;126.40;;;122.10;;
57057;SDS011;55017;52.848;6.748;2023-04-03T10:12:25;120.30;;;116.50;;
57057;SDS011;55017;52.848;6.748;2023-04-03T10:17:41;120.10;;;116.13;;
57057;SDS011;55017;52.848;6.748;2023-04-03T10:20:31;124.85;;;120.60;;
57057;SDS011;55017;52.848;6.748;2023-04-03T10:28:20;123.90;;;119.80;;
57057;SDS011;55017;52.848;6.748;2023-04-03T10:36:12;120.60;;;116.60;;
57057;SDS011;55017;52.848;6.748;2023-04-03T10:46:39;123.50;;;119.60;;
57057;SDS011;55017;52.848;6.748;2023-04-03T10:51:45;124.40;;;120.40;;
57057;SDS011;55017;52.848;6.748;2023-04-03T10:56:40;122.10;;;117.80;;
57057;SDS011;55017;52.848;6.748;2023-04-03T10:59:21;119.60;;;115.80;;
57057;SDS011;55017;52.848;6.748;2023-04-03T11:04:46;124.13;;;120.03;;
57057;SDS011;55017;52.848;6.748;2023-04-03T11:07:16;121.40;;;117.40;;
57057;SDS011;55017;52.848;6.748;2023-04-03T11:12:17;122.75;;;118.80;;
57057;SDS011;55017;52.848;6.748;2023-04-03T11:14:49;124.40;;;120.45;;
57057;SDS011;55017;52.848;6.748;2023-04-03T11:17:21;124.70;;;120.60;;
57057;SDS011;55017;52.848;6.748;2023-04-03T11:20:01;119.80;;;115.90;;
57057;SDS011;55017;52.848;6.748;2023-04-03T11:27:44;123.20;;;119.10;;
57057;SDS011;55017;52.848;6.748;2023-04-03T11:30:24;124.60;;;120.60;;
57057;SDS011;55017;52.848;6.748;2023-04-03T11:35:17;120.70;;;116.80;;
57057;SDS011;55017;52.848;6.748;2023-04-03T11:37:52;121.30;;;117.43;;
57057;SDS011;55017;52.848;6.748;2023-04-03T11:40:24;123.80;;;119.60;;
57057;SDS011;55017;52.848;6.748;2023-04-03T11:42:52;122.38;;;118.25;;
57057;SDS011;55017;52.848;6.748;2023-04-03T11:45:31;120.95;;;117.05;;
57057;SDS011;55017;52.848;6.748;2023-04-03T12:32:12;121.30;;;117.30;;
57057;SDS011;55017;52.848;6.748;2023-04-03T12:40:21;120.25;;;116.25;;
57057;SDS011;55017;52.848;6.748;2023-04-03T12:48:32;120.10;;;116.10;;
57057;SDS011;55017;52.848;6.748;2023-04-03T12:50:59;124.25;;;120.20;;
57057;SDS011;55017;52.848;6.748;2023-04-03T12:53:27;122.30;;;118.30;;
57057;SDS011;55017;52.848;6.748;2023-04-03T13:01:10;121.50;;;117.50;;
57057;SDS011;55017;52.848;6.748;2023-04-03T13:03:37;124.80;;;120.80;;
57057;SDS011;55017;52.848;6.748;2023-04-03T13:06:05;122.03;;;117.70;;
57057;SDS011;55017;52.848;6.748;2023-04-03T13:08:31;123.90;;;119.90;;
57057;SDS011;55017;52.848;6.748;2023-04-03T13:11:05;120.10;;;116.10;;
57057;SDS011;55017;52.848;6.748;2023-04-03T13:13:31;119.67;;;115.67;;
57057;SDS011;55017;52.848;6.748;2023-04-03T13:15:57;123.05;;;119.15;;
57057;SDS011;55017;52.848;6.748;2023-04-03T13:18:31;123.05;;;119.15;;
57057;SDS011;55017;52.848;6.748;2023-04-03T13:21:05;117.00;;;113.15;;
57057;SDS011;55017;52.848;6.748;2023-04-03T13:23:32;121.10;;;117.10;;
57057;SDS011;55017;52.848;6.748;2023-04-03T13:26:00;116.70;;;112.90;;
57057;SDS011;55017;52.848;6.748;2023-04-03T13:28:28;116.40;;;112.60;;
57057;SDS011;55017;52.848;6.748;2023-04-03T13:31:03;117.40;;;113.70;;
57057;SDS011;55017;52.848;6.748;2023-04-03T13:33:30;114.60;;;111.00;;
57057;SDS011;55017;52.848;6.748;2023-04-03T13:38:25;115.40;;;111.60;;
57057;SDS011;55017;52.848;6.748;2023-04-03T13:40:56;115.05;;;111.30;;
57057;SDS011;55017;52.848;6.748;2023-04-03T13:43:33;112.90;;;109.30;;
57057;SDS011;55017;52.848;6.748;2023-04-03T13:46:04;114.03;;;110.43;;
57057;SDS011;55017;52.848;6.748;2023-04-03T13:48:34;112.65;;;109.05;;
57057;SDS011;55017;52.848;6.748;2023-04-03T13:51:02;115.15;;;111.45;;
57057;SDS011;55017;52.848;6.748;2023-04-03T13:55:56;115.82;;;112.10;;
57057;SDS011;55017;52.848;6.748;2023-04-03T13:58:24;112.35;;;108.75;;
57057;SDS011;55017;52.848;6.748;2023-04-03T14:03:53;111.50;;;107.90;;
57057;SDS011;55017;52.848;6.748;2023-04-03T14:06:19;115.72;;;111.93;;
57057;SDS011;55017;52.848;6.748;2023-04-03T14:08:45;114.47;;;110.68;;
57057;SDS011;55017;52.848;6.748;2023-04-03T14:11:24;114.90;;;111.10;;
57057;SDS011;55017;52.848;6.748;2023-04-03T14:13:50;115.78;;;112.03;;
57057;SDS011;55017;52.848;6.748;2023-04-03T14:16:18;113.00;;;109.40;;
57057;SDS011;55017;52.848;6.748;2023-04-03T14:18:45;115.15;;;111.20;;
57057;SDS011;55017;52.848;6.748;2023-04-03T14:21:12;114.38;;;110.57;;
57057;SDS011;55017;52.848;6.748;2023-04-03T14:23:38;115.50;;;111.80;;
57057;SDS011;55017;52.848;6.748;2023-04-03T14:26:09;116.18;;;112.28;;
57057;SDS011;55017;52.848;6.748;2023-04-03T14:28:36;115.60;;;111.88;;
57057;SDS011;55017;52.848;6.748;2023-04-03T14:31:02;114.60;;;110.30;;
57057;SDS011;55017;52.848;6.748;2023-04-03T14:33:28;113.95;;;110.18;;
57057;SDS011;55017;52.848;6.748;2023-04-03T14:38:23;113.88;;;110.10;;
57057;SDS011;55017;52.848;6.748;2023-04-03T14:40:50;113.20;;;109.40;;
57057;SDS011;55017;52.848;6.748;2023-04-03T14:43:16;116.00;;;112.20;;
57057;SDS011;55017;52.848;6.748;2023-04-03T14:45:43;114.25;;;110.55;;
57057;SDS011;55017;52.848;6.748;2023-04-03T14:48:19;117.20;;;113.45;;
57057;SDS011;55017;52.848;6.748;2023-04-03T14:50:46;112.72;;;109.10;;
57057;SDS011;55017;52.848;6.748;2023-04-03T14:53:12;117.00;;;113.20;;
57057;SDS011;55017;52.848;6.748;2023-04-03T14:55:40;119.20;;;115.40;;
57057;SDS011;55017;52.848;6.748;2023-04-03T14:58:08;110.47;;;106.80;;
57057;SDS011;55017;52.848;6.748;2023-04-03T15:00:34;109.97;;;106.38;;
57057;SDS011;55017;52.848;6.748;2023-04-03T15:03:00;116.00;;;112.20;;
57057;SDS011;55017;52.848;6.748;2023-04-03T15:05:26;115.70;;;112.00;;
57057;SDS011;55017;52.848;6.748;2023-04-03T15:07:53;113.88;;;109.97;;
57057;SDS011;55017;52.848;6.748;2023-04-03T15:12:46;114.30;;;110.45;;
57057;SDS011;55017;52.848;6.748;2023-04-03T15:15:13;115.30;;;111.60;;
57057;SDS011;55017;52.848;6.748;2023-04-03T15:17:39;112.70;;;109.10;;
57057;SDS011;55017;52.848;6.748;2023-04-03T15:20:16;110.97;;;107.47;;
57057;SDS011;55017;52.848;6.748;2023-04-03T15:22:42;116.72;;;112.93;;
57057;SDS011;55017;52.848;6.748;2023-04-03T15:25:08;117.53;;;113.53;;
57057;SDS011;55017;52.848;6.748;2023-04-03T15:27:35;116.28;;;112.55;;
57057;SDS011;55017;52.848;6.748;2023-04-03T15:30:02;115.37;;;111.57;;
57057;SDS011;55017;52.848;6.748;2023-04-03T15:32:28;120.35;;;116.55;;
57057;SDS011;55017;52.848;6.748;2023-04-03T15:34:54;116.40;;;112.50;;
57057;SDS011;55017;52.848;6.748;2023-04-03T15:37:20;114.65;;;110.95;;
57057;SDS011;55017;52.848;6.748;2023-04-03T15:39:46;116.38;;;112.57;;
57057;SDS011;55017;52.848;6.748;2023-04-03T15:42:12;118.50;;;114.60;;
57057;SDS011;55017;52.848;6.748;2023-04-03T15:44:38;115.60;;;111.90;;
57057;SDS011;55017;52.848;6.748;2023-04-03T15:47:04;115.35;;;111.65;;
57057;SDS011;55017;52.848;6.748;2023-04-03T15:49:32;115.25;;;111.50;;
57057;SDS011;55017;52.848;6.748;2023-04-03T15:51:59;117.15;;;113.25;;
57057;SDS011;55017;52.848;6.748;2023-04-03T15:54:25;117.07;;;113.37;;
57057;SDS011;55017;52.848;6.748;2023-04-03T15:56:52;116.20;;;112.40;;
57057;SDS011;55017;52.848;6.748;2023-04-03T15:59:18;115.00;;;111.20;;
57057;SDS011;55017;52.848;6.748;2023-04-03T16:01:44;119.32;;;115.32;;
57057;SDS011;55017;52.848;6.748;2023-04-03T16:04:10;113.25;;;109.45;;
57057;SDS011;55017;52.848;6.748;2023-04-03T16:06:37;116.85;;;112.95;;
57057;SDS011;55017;52.848;6.748;2023-04-03T16:09:03;112.20;;;108.50;;
57057;SDS011;55017;52.848;6.748;2023-04-03T16:11:30;119.95;;;115.95;;
57057;SDS011;55017;52.848;6.748;2023-04-03T16:13:56;119.45;;;115.55;;
57057;SDS011;55017;52.848;6.748;2023-04-03T16:16:22;117.90;;;114.00;;
57057;SDS011;55017;52.848;6.748;2023-04-03T16:18:49;115.05;;;111.20;;
57057;SDS011;55017;52.848;6.748;2023-04-03T16:21:15;115.65;;;111.80;;
57057;SDS011;55017;52.848;6.748;2023-04-03T16:23:42;117.60;;;113.43;;
57057;SDS011;55017;52.848;6.748;2023-04-03T16:26:08;115.80;;;112.00;;
57057;SDS011;55017;52.848;6.748;2023-04-03T16:28:34;111.20;;;107.40;;
57057;SDS011;55017;52.848;6.748;2023-04-03T16:31:01;114.20;;;110.50;;